sensor_id;sensor_type;location;lat;lon;timestamp;pressure;altitude;pressure_sealevel;temperature;humidity
76864;BME280;65834;52.364;9.754;2023-05-01T00:01:44;101318.41;;;10.47;47.19
76864;BME280;65834;52.364;9.754;2023-05-01T00:04:13;101326.72;;;10.45;47.41
76864;BME280;65834;52.364;9.754;2023-05-01T00:06:43;101309.31;;;10.40;48.00
76864;BME280;65834;52.364;9.754;2023-05-01T00:09:13;101314.19;;;10.52;47.73
76864;BME280;65834;52.364;9.754;2023-05-01T00:11:42;101313.16;;;10.37;47.72
76864;BME280;65834;52.364;9.754;2023-05-01T00:14:12;101308.97;;;10.26;48.21
76864;BME280;65834;52.364;9.754;2023-05-01T00:16:44;101292.38;;;10.21;48.27
76864;BME280;65834;52.364;9.754;2023-05-01T00:19:14;101292.91;;;10.17;48.39
76864;BME280;65834;52.364;9.754;2023-05-01T00:21:44;101297.13;;;10.19;49.33
76864;BME280;65834;52.364;9.754;2023-05-01T00:24:14;101304.22;;;10.20;48.68
76864;BME280;65834;52.364;9.754;2023-05-01T00:26:44;101308.13;;;10.18;48.84
76864;BME280;65834;52.364;9.754;2023-05-01T00:29:13;101292.91;;;10.17;49.24
76864;BME280;65834;52.364;9.754;2023-05-01T00:31:46;101284.13;;;10.15;49.02
76864;BME280;65834;52.364;9.754;2023-05-01T00:34:15;101288.16;;;10.19;49.07
76864;BME280;65834;52.364;9.754;2023-05-01T00:36:45;101286.31;;;10.19;48.84
76864;BME280;65834;52.364;9.754;2023-05-01T00:39:15;101280.69;;;10.13;49.06
76864;BME280;65834;52.364;9.754;2023-05-01T00:41:45;101268.72;;;9.99;49.38
76864;BME280;65834;52.364;9.754;2023-05-01T00:44:14;101245.19;;;9.75;49.39
76864;BME280;65834;52.364;9.754;2023-05-01T00:46:46;101274.94;;;10.00;49.46
76864;BME280;65834;52.364;9.754;2023-05-01T00:49:16;101271.94;;;10.03;49.50
76864;BME280;65834;52.364;9.754;2023-05-01T00:51:48;101261.09;;;9.95;49.42
76864;BME280;65834;52.364;9.754;2023-05-01T00:54:20;101250.59;;;9.75;49.67
76864;BME280;65834;52.364;9.754;2023-05-01T00:56:51;101261.56;;;9.82;50.08
76864;BME280;65834;52.364;9.754;2023-05-01T00:59:21;101269.00;;;9.88;50.13
76864;BME280;65834;52.364;9.754;2023-05-01T01:01:53;101262.75;;;9.79;49.91
76864;BME280;65834;52.364;9.754;2023-05-01T01:04:23;101264.97;;;9.84;50.13
76864;BME280;65834;52.364;9.754;2023-05-01T01:07:04;101260.06;;;9.79;50.18
76864;BME280;65834;52.364;9.754;2023-05-01T01:09:41;101261.25;;;9.85;50.13
76864;BME280;65834;52.364;9.754;2023-05-01T01:12:21;101245.88;;;9.77;50.25
76864;BME280;65834;52.364;9.754;2023-05-01T01:14:57;101263.44;;;9.81;50.01
76864;BME280;65834;52.364;9.754;2023-05-01T01:17:37;101253.97;;;9.69;50.33
76864;BME280;65834;52.364;9.754;2023-05-01T01:20:23;101255.13;;;9.67;50.41
76864;BME280;65834;52.364;9.754;2023-05-01T01:23:20;101251.06;;;9.63;50.55
76864;BME280;65834;52.364;9.754;2023-05-01T01:26:10;101243.97;;;9.46;50.95
76864;BME280;65834;52.364;9.754;2023-05-01T01:29:03;101249.88;;;9.49;51.10
76864;BME280;65834;52.364;9.754;2023-05-01T01:31:45;101247.50;;;9.54;51.00
76864;BME280;65834;52.364;9.754;2023-05-01T01:34:27;101245.47;;;9.48;51.09
76864;BME280;65834;52.364;9.754;2023-05-01T01:37:04;101242.97;;;9.55;50.98
76864;BME280;65834;52.364;9.754;2023-05-01T01:39:40;101230.97;;;9.49;51.13
76864;BME280;65834;52.364;9.754;2023-05-01T01:42:15;101226.56;;;9.48;50.93
76864;BME280;65834;52.364;9.754;2023-05-01T01:44:49;101226.56;;;9.48;50.96
76864;BME280;65834;52.364;9.754;2023-05-01T01:47:28;101222.53;;;9.52;50.86
76864;BME280;65834;52.364;9.754;2023-05-01T01:50:04;101225.91;;;9.54;51.00
76864;BME280;65834;52.364;9.754;2023-05-01T01:52:36;101212.06;;;9.49;51.29
76864;BME280;65834;52.364;9.754;2023-05-01T01:55:10;101206.69;;;9.49;50.85
76864;BME280;65834;52.364;9.754;2023-05-01T01:57:40;101203.81;;;9.67;51.17
76864;BME280;65834;52.364;9.754;2023-05-01T02:00:13;101206.53;;;9.67;50.90
76864;BME280;65834;52.364;9.754;2023-05-01T02:02:47;101196.72;;;9.58;50.79
76864;BME280;65834;52.364;9.754;2023-05-01T02:05:23;101201.09;;;9.51;50.87
76864;BME280;65834;52.364;9.754;2023-05-01T02:07:54;101204.13;;;9.48;50.96
76864;BME280;65834;52.364;9.754;2023-05-01T02:10:26;101194.31;;;9.39;51.54
76864;BME280;65834;52.364;9.754;2023-05-01T02:12:58;101200.44;;;9.49;51.36
76864;BME280;65834;52.364;9.754;2023-05-01T02:15:29;101196.72;;;9.50;51.09
76864;BME280;65834;52.364;9.754;2023-05-01T02:18:00;101184.19;;;9.33;51.39
76864;BME280;65834;52.364;9.754;2023-05-01T02:20:35;101192.44;;;9.23;51.60
76864;BME280;65834;52.364;9.754;2023-05-01T02:23:06;101175.28;;;9.40;51.52
76864;BME280;65834;52.364;9.754;2023-05-01T02:25:37;101178.13;;;9.39;51.48
76864;BME280;65834;52.364;9.754;2023-05-01T02:28:11;101175.41;;;9.31;51.58
76864;BME280;65834;52.364;9.754;2023-05-01T02:30:41;101170.16;;;9.29;51.75
76864;BME280;65834;52.364;9.754;2023-05-01T02:33:12;101158.56;;;9.29;51.82
76864;BME280;65834;52.364;9.754;2023-05-01T02:35:45;101154.16;;;9.19;52.02
76864;BME280;65834;52.364;9.754;2023-05-01T02:38:17;101150.59;;;9.19;51.97
76864;BME280;65834;52.364;9.754;2023-05-01T02:40:49;101142.31;;;9.20;52.09
76864;BME280;65834;52.364;9.754;2023-05-01T02:43:20;101129.88;;;9.19;52.17
76864;BME280;65834;52.364;9.754;2023-05-01T02:45:51;101133.22;;;9.21;52.13
76864;BME280;65834;52.364;9.754;2023-05-01T02:48:24;101136.75;;;9.14;52.27
76864;BME280;65834;52.364;9.754;2023-05-01T02:50:59;101134.22;;;9.12;52.40
76864;BME280;65834;52.364;9.754;2023-05-01T02:53:30;101138.59;;;9.05;52.72
76864;BME280;65834;52.364;9.754;2023-05-01T02:56:09;101128.81;;;9.12;52.35
76864;BME280;65834;52.364;9.754;2023-05-01T02:58:39;101132.66;;;9.02;52.51
76864;BME280;65834;52.364;9.754;2023-05-01T03:01:10;101134.19;;;8.96;52.44
76864;BME280;65834;52.364;9.754;2023-05-01T03:03:39;101137.00;;;8.87;53.03
76864;BME280;65834;52.364;9.754;2023-05-01T03:06:12;101126.41;;;8.85;52.84
76864;BME280;65834;52.364;9.754;2023-05-01T03:08:42;101124.88;;;8.83;53.11
76864;BME280;65834;52.364;9.754;2023-05-01T03:11:13;101123.34;;;8.80;53.19
76864;BME280;65834;52.364;9.754;2023-05-01T03:13:42;101132.78;;;8.76;53.10
76864;BME280;65834;52.364;9.754;2023-05-01T03:16:13;101130.22;;;8.66;53.33
76864;BME280;65834;52.364;9.754;2023-05-01T03:18:42;101122.84;;;8.77;53.65
76864;BME280;65834;52.364;9.754;2023-05-01T03:21:15;101122.47;;;8.71;53.46
76864;BME280;65834;52.364;9.754;2023-05-01T03:23:44;101117.91;;;8.72;53.49
76864;BME280;65834;52.364;9.754;2023-05-01T03:26:14;101112.38;;;8.74;53.58
76864;BME280;65834;52.364;9.754;2023-05-01T03:28:44;101109.97;;;8.70;53.41
76864;BME280;65834;52.364;9.754;2023-05-01T03:31:13;101109.03;;;8.80;53.42
76864;BME280;65834;52.364;9.754;2023-05-01T03:33:43;101110.50;;;8.74;53.43
76864;BME280;65834;52.364;9.754;2023-05-01T03:36:17;101104.75;;;8.69;53.54
76864;BME280;65834;52.364;9.754;2023-05-01T03:38:48;101101.22;;;8.68;53.77
76864;BME280;65834;52.364;9.754;2023-05-01T03:41:53;101090.28;;;8.78;53.53
76864;BME280;65834;52.364;9.754;2023-05-01T03:44:25;101089.28;;;8.79;53.19
76864;BME280;65834;52.364;9.754;2023-05-01T03:46:54;101092.00;;;8.79;53.22
76864;BME280;65834;52.364;9.754;2023-05-01T03:49:27;101083.72;;;8.73;53.49
76864;BME280;65834;52.364;9.754;2023-05-01T03:51:59;101079.31;;;8.71;53.56
76864;BME280;65834;52.364;9.754;2023-05-01T03:54:28;101076.59;;;8.63;53.64
76864;BME280;65834;52.364;9.754;2023-05-01T03:57:12;101079.25;;;8.55;53.86
76864;BME280;65834;52.364;9.754;2023-05-01T03:59:42;101083.34;;;8.67;53.84
76864;BME280;65834;52.364;9.754;2023-05-01T04:02:12;101075.75;;;8.63;53.95
76864;BME280;65834;52.364;9.754;2023-05-01T04:04:43;101074.03;;;8.54;54.45
76864;BME280;65834;52.364;9.754;2023-05-01T04:07:16;101077.59;;;8.54;54.35
76864;BME280;65834;52.364;9.754;2023-05-01T04:09:47;101065.09;;;8.53;54.47
76864;BME280;65834;52.364;9.754;2023-05-01T04:12:17;101064.97;;;8.55;54.26
76864;BME280;65834;52.364;9.754;2023-05-01T04:14:47;101064.63;;;8.58;54.40
76864;BME280;65834;52.364;9.754;2023-05-01T04:17:16;101058.19;;;8.51;54.56
76864;BME280;65834;52.364;9.754;2023-05-01T04:19:46;101057.69;;;8.55;54.24
76864;BME280;65834;52.364;9.754;2023-05-01T04:22:18;101059.03;;;8.51;54.53
76864;BME280;65834;52.364;9.754;2023-05-01T04:24:48;101056.16;;;8.53;54.64
76864;BME280;65834;52.364;9.754;2023-05-01T04:27:18;101058.34;;;8.49;54.66
76864;BME280;65834;52.364;9.754;2023-05-01T04:29:48;101052.59;;;8.44;54.62
76864;BME280;65834;52.364;9.754;2023-05-01T04:32:17;101057.47;;;8.41;54.83
76864;BME280;65834;52.364;9.754;2023-05-01T04:34:47;101054.09;;;8.39;54.96
76864;BME280;65834;52.364;9.754;2023-05-01T04:37:19;101053.94;;;8.40;54.98
76864;BME280;65834;52.364;9.754;2023-05-01T04:39:49;101056.31;;;8.43;54.61
76864;BME280;65834;52.364;9.754;2023-05-01T04:42:20;101049.78;;;8.54;54.55
76864;BME280;65834;52.364;9.754;2023-05-01T04:44:50;101051.31;;;8.56;54.02
76864;BME280;65834;52.364;9.754;2023-05-01T04:47:19;101051.28;;;8.48;54.66
76864;BME280;65834;52.364;9.754;2023-05-01T04:49:49;101050.09;;;8.51;54.61
76864;BME280;65834;52.364;9.754;2023-05-01T04:52:21;101048.53;;;8.40;54.92
76864;BME280;65834;52.364;9.754;2023-05-01T04:54:55;101054.31;;;8.45;54.83
76864;BME280;65834;52.364;9.754;2023-05-01T04:57:28;101049.94;;;8.52;54.51
76864;BME280;65834;52.364;9.754;2023-05-01T04:59:59;101045.19;;;8.46;54.82
76864;BME280;65834;52.364;9.754;2023-05-01T05:02:32;101049.38;;;8.41;54.99
76864;BME280;65834;52.364;9.754;2023-05-01T05:05:02;101055.97;;;8.46;54.81
76864;BME280;65834;52.364;9.754;2023-05-01T05:07:35;101043.84;;;8.42;55.21
76864;BME280;65834;52.364;9.754;2023-05-01T05:10:30;101048.53;;;8.40;54.75
76864;BME280;65834;52.364;9.754;2023-05-01T05:13:13;101047.88;;;8.46;54.53
76864;BME280;65834;52.364;9.754;2023-05-01T05:15:44;101054.47;;;8.44;54.93
76864;BME280;65834;52.364;9.754;2023-05-01T05:18:16;101045.38;;;8.45;54.92
76864;BME280;65834;52.364;9.754;2023-05-01T05:20:46;101048.91;;;8.45;54.95
76864;BME280;65834;52.364;9.754;2023-05-01T05:23:18;101048.19;;;8.35;55.34
76864;BME280;65834;52.364;9.754;2023-05-01T05:25:48;101055.97;;;8.46;55.28
76864;BME280;65834;52.364;9.754;2023-05-01T05:28:18;101045.91;;;8.48;54.98
76864;BME280;65834;52.364;9.754;2023-05-01T05:30:47;101040.97;;;8.44;55.14
76864;BME280;65834;52.364;9.754;2023-05-01T05:33:19;101051.31;;;8.56;54.34
76864;BME280;65834;52.364;9.754;2023-05-01T05:35:50;101041.38;;;8.57;54.36
76864;BME280;65834;52.364;9.754;2023-05-01T05:38:27;101039.50;;;8.57;54.62
76864;BME280;65834;52.364;9.754;2023-05-01T05:40:57;101042.22;;;8.57;54.91
76864;BME280;65834;52.364;9.754;2023-05-01T05:43:29;101042.72;;;8.61;54.77
76864;BME280;65834;52.364;9.754;2023-05-01T05:45:59;101042.88;;;8.67;54.63
76864;BME280;65834;52.364;9.754;2023-05-01T05:48:31;101041.22;;;8.66;54.40
76864;BME280;65834;52.364;9.754;2023-05-01T05:51:00;101036.16;;;8.71;54.60
76864;BME280;65834;52.364;9.754;2023-05-01T05:53:33;101035.84;;;8.75;54.05
76864;BME280;65834;52.364;9.754;2023-05-01T05:56:03;101034.16;;;8.82;54.19
76864;BME280;65834;52.364;9.754;2023-05-01T05:58:32;101025.09;;;8.83;54.28
76864;BME280;65834;52.364;9.754;2023-05-01T06:01:03;101033.50;;;8.88;54.51
76864;BME280;65834;52.364;9.754;2023-05-01T06:03:34;101025.75;;;8.93;53.91
76864;BME280;65834;52.364;9.754;2023-05-01T06:06:04;101025.94;;;8.91;53.75
76864;BME280;65834;52.364;9.754;2023-05-01T06:08:36;101018.16;;;8.96;53.59
76864;BME280;65834;52.364;9.754;2023-05-01T06:11:09;101024.41;;;8.97;53.85
76864;BME280;65834;52.364;9.754;2023-05-01T06:13:39;101016.84;;;9.00;53.33
76864;BME280;65834;52.364;9.754;2023-05-01T06:16:08;101019.88;;;9.05;53.24
76864;BME280;65834;52.364;9.754;2023-05-01T06:18:38;101020.56;;;9.07;53.50
76864;BME280;65834;52.364;9.754;2023-05-01T06:21:11;101022.06;;;9.10;53.15
76864;BME280;65834;52.364;9.754;2023-05-01T06:23:44;101010.94;;;9.13;53.05
76864;BME280;65834;52.364;9.754;2023-05-01T06:26:40;101015.66;;;9.19;53.11
76864;BME280;65834;52.364;9.754;2023-05-01T06:29:10;101011.59;;;9.23;53.02
76864;BME280;65834;52.364;9.754;2023-05-01T06:31:39;101014.97;;;9.25;53.07
76864;BME280;65834;52.364;9.754;2023-05-01T06:34:09;101018.00;;;9.30;52.78
76864;BME280;65834;52.364;9.754;2023-05-01T06:36:49;101006.53;;;9.36;52.74
76864;BME280;65834;52.364;9.754;2023-05-01T06:39:21;101003.00;;;9.44;52.94
76864;BME280;65834;52.364;9.754;2023-05-01T06:41:51;101001.47;;;9.49;52.74
76864;BME280;65834;52.364;9.754;2023-05-01T06:44:30;100998.25;;;9.46;52.45
76864;BME280;65834;52.364;9.754;2023-05-01T06:47:00;100996.41;;;9.46;52.66
76864;BME280;65834;52.364;9.754;2023-05-01T06:49:30;100993.69;;;9.54;52.72
76864;BME280;65834;52.364;9.754;2023-05-01T06:52:00;100990.13;;;9.62;52.33
76864;BME280;65834;52.364;9.754;2023-05-01T06:54:32;100990.13;;;9.62;52.46
76864;BME280;65834;52.364;9.754;2023-05-01T06:57:02;100990.78;;;9.72;52.04
76864;BME280;65834;52.364;9.754;2023-05-01T06:59:32;100985.53;;;9.70;52.06
76864;BME280;65834;52.364;9.754;2023-05-01T07:02:02;100986.06;;;9.74;52.11
76864;BME280;65834;52.364;9.754;2023-05-01T07:04:31;100981.31;;;9.76;51.96
76864;BME280;65834;52.364;9.754;2023-05-01T07:07:01;100983.66;;;9.79;52.21
76864;BME280;65834;52.364;9.754;2023-05-01T07:09:33;100975.69;;;9.86;51.83
76864;BME280;65834;52.364;9.754;2023-05-01T07:12:04;100976.72;;;9.85;52.10
76864;BME280;65834;52.364;9.754;2023-05-01T07:14:34;100979.91;;;9.96;51.53
76864;BME280;65834;52.364;9.754;2023-05-01T07:17:04;100973.81;;;9.94;51.71
76864;BME280;65834;52.364;9.754;2023-05-01T07:19:34;100968.91;;;9.98;51.62
76864;BME280;65834;52.364;9.754;2023-05-01T07:22:04;100967.00;;;10.06;51.51
76864;BME280;65834;52.364;9.754;2023-05-01T07:24:36;100971.25;;;10.09;51.42
76864;BME280;65834;52.364;9.754;2023-05-01T07:27:06;100969.72;;;10.14;51.39
76864;BME280;65834;52.364;9.754;2023-05-01T07:29:37;100964.63;;;10.19;51.24
76864;BME280;65834;52.364;9.754;2023-05-01T07:32:06;100957.78;;;10.31;50.75
76864;BME280;65834;52.364;9.754;2023-05-01T07:34:36;100951.53;;;10.31;50.75
76864;BME280;65834;52.364;9.754;2023-05-01T07:37:05;100952.34;;;10.40;50.57
76864;BME280;65834;52.364;9.754;2023-05-01T07:39:37;100955.88;;;10.40;50.49
76864;BME280;65834;52.364;9.754;2023-05-01T07:42:07;100953.50;;;10.45;50.39
76864;BME280;65834;52.364;9.754;2023-05-01T07:44:37;100954.94;;;10.56;50.38
76864;BME280;65834;52.364;9.754;2023-05-01T07:47:06;100950.22;;;10.58;50.56
76864;BME280;65834;52.364;9.754;2023-05-01T07:49:36;100952.56;;;10.61;50.19
76864;BME280;65834;52.364;9.754;2023-05-01T07:52:06;100960.06;;;10.73;49.61
76864;BME280;65834;52.364;9.754;2023-05-01T07:54:39;100952.13;;;10.72;49.84
76864;BME280;65834;52.364;9.754;2023-05-01T07:57:08;100948.16;;;10.82;49.73
76864;BME280;65834;52.364;9.754;2023-05-01T07:59:38;100950.50;;;10.85;49.45
76864;BME280;65834;52.364;9.754;2023-05-01T08:02:07;100948.09;;;10.91;49.46
76864;BME280;65834;52.364;9.754;2023-05-01T08:04:37;100937.50;;;11.04;49.03
76864;BME280;65834;52.364;9.754;2023-05-01T08:07:07;100930.28;;;10.96;49.49
76864;BME280;65834;52.364;9.754;2023-05-01T08:09:39;100928.06;;;11.00;49.65
76864;BME280;65834;52.364;9.754;2023-05-01T08:12:09;100933.09;;;11.03;49.88
76864;BME280;65834;52.364;9.754;2023-05-01T08:14:38;100932.38;;;11.09;49.81
76864;BME280;65834;52.364;9.754;2023-05-01T08:17:08;100931.34;;;11.10;49.92
76864;BME280;65834;52.364;9.754;2023-05-01T08:19:37;100921.44;;;11.17;50.07
76864;BME280;65834;52.364;9.754;2023-05-01T08:22:07;100924.16;;;11.17;50.11
76864;BME280;65834;52.364;9.754;2023-05-01T08:24:39;100922.59;;;11.22;50.13
76864;BME280;65834;52.364;9.754;2023-05-01T08:27:09;100921.38;;;11.25;50.20
76864;BME280;65834;52.364;9.754;2023-05-01T08:29:38;100913.28;;;11.39;50.13
76864;BME280;65834;52.364;9.754;2023-05-01T08:32:08;100909.56;;;11.40;50.37
76864;BME280;65834;52.364;9.754;2023-05-01T08:34:37;100914.59;;;11.43;50.06
76864;BME280;65834;52.364;9.754;2023-05-01T08:37:07;100918.44;;;11.49;50.09
76864;BME280;65834;52.364;9.754;2023-05-01T08:39:39;100912.72;;;11.59;50.01
76864;BME280;65834;52.364;9.754;2023-05-01T08:42:09;100917.94;;;11.60;50.05
76864;BME280;65834;52.364;9.754;2023-05-01T08:44:39;100909.91;;;11.67;49.85
76864;BME280;65834;52.364;9.754;2023-05-01T08:47:11;100909.19;;;11.87;48.87
76864;BME280;65834;52.364;9.754;2023-05-01T08:49:44;100907.22;;;11.81;49.27
76864;BME280;65834;52.364;9.754;2023-05-01T08:52:14;100912.94;;;11.86;49.41
76864;BME280;65834;52.364;9.754;2023-05-01T08:54:47;100906.66;;;11.86;49.45
76864;BME280;65834;52.364;9.754;2023-05-01T08:57:20;100903.38;;;11.90;49.62
76864;BME280;65834;52.364;9.754;2023-05-01T08:59:52;100909.09;;;11.95;49.69
76864;BME280;65834;52.364;9.754;2023-05-01T09:02:25;100902.94;;;12.23;48.69
76864;BME280;65834;52.364;9.754;2023-05-01T09:04:56;100900.25;;;12.23;48.99
76864;BME280;65834;52.364;9.754;2023-05-01T09:07:29;100897.28;;;12.18;49.28
76864;BME280;65834;52.364;9.754;2023-05-01T09:10:02;100898.53;;;12.22;49.45
76864;BME280;65834;52.364;9.754;2023-05-01T09:12:32;100895.28;;;12.26;49.45
76864;BME280;65834;52.364;9.754;2023-05-01T09:15:03;100900.94;;;12.31;49.35
76864;BME280;65834;52.364;9.754;2023-05-01T09:17:34;100896.63;;;12.37;49.40
76864;BME280;65834;52.364;9.754;2023-05-01T09:20:05;100890.78;;;12.33;49.56
76864;BME280;65834;52.364;9.754;2023-05-01T09:22:35;100892.88;;;12.38;49.44
76864;BME280;65834;52.364;9.754;2023-05-01T09:25:08;100884.69;;;12.52;49.53
76864;BME280;65834;52.364;9.754;2023-05-01T09:27:38;100886.56;;;12.52;49.26
76864;BME280;65834;52.364;9.754;2023-05-01T09:30:08;100882.72;;;12.61;49.31
76864;BME280;65834;52.364;9.754;2023-05-01T09:32:38;100874.44;;;12.69;49.14
76864;BME280;65834;52.364;9.754;2023-05-01T09:35:09;100876.88;;;12.85;48.51
76864;BME280;65834;52.364;9.754;2023-05-01T09:37:40;100872.84;;;12.81;49.11
76864;BME280;65834;52.364;9.754;2023-05-01T09:40:14;100875.75;;;12.80;49.11
76864;BME280;65834;52.364;9.754;2023-05-01T09:42:48;100873.75;;;12.88;49.01
76864;BME280;65834;52.364;9.754;2023-05-01T09:45:18;100867.09;;;12.91;49.34
76864;BME280;65834;52.364;9.754;2023-05-01T09:47:49;100862.13;;;12.94;49.21
76864;BME280;65834;52.364;9.754;2023-05-01T09:50:29;100857.94;;;12.98;48.93
76864;BME280;65834;52.364;9.754;2023-05-01T09:53:00;100864.03;;;13.00;49.29
76864;BME280;65834;52.364;9.754;2023-05-01T09:55:33;100862.19;;;13.07;48.93
76864;BME280;65834;52.364;9.754;2023-05-01T09:58:03;100863.25;;;13.07;48.92
76864;BME280;65834;52.364;9.754;2023-05-01T10:00:46;100853.50;;;13.12;49.26
76864;BME280;65834;52.364;9.754;2023-05-01T10:03:17;100858.41;;;13.30;48.67
76864;BME280;65834;52.364;9.754;2023-05-01T10:05:46;100850.13;;;13.38;48.57
76864;BME280;65834;52.364;9.754;2023-05-01T10:08:16;100855.56;;;13.44;48.71
76864;BME280;65834;52.364;9.754;2023-05-01T10:10:58;100835.00;;;13.70;47.30
76864;BME280;65834;52.364;9.754;2023-05-01T10:13:28;100851.09;;;13.65;48.47
76864;BME280;65834;52.364;9.754;2023-05-01T10:15:57;100846.47;;;13.58;48.25
76864;BME280;65834;52.364;9.754;2023-05-01T10:18:33;100842.03;;;13.51;48.07
76864;BME280;65834;52.364;9.754;2023-05-01T10:21:03;100849.38;;;13.57;48.43
76864;BME280;65834;52.364;9.754;2023-05-01T10:23:33;100838.75;;;13.62;48.65
76864;BME280;65834;52.364;9.754;2023-05-01T10:26:06;100842.94;;;13.65;48.43
76864;BME280;65834;52.364;9.754;2023-05-01T10:28:37;100837.41;;;13.92;47.43
76864;BME280;65834;52.364;9.754;2023-05-01T10:31:07;100834.03;;;13.84;48.02
76864;BME280;65834;52.364;9.754;2023-05-01T10:33:39;100822.31;;;13.83;48.05
76864;BME280;65834;52.364;9.754;2023-05-01T10:36:12;100815.69;;;13.99;48.39
76864;BME280;65834;52.364;9.754;2023-05-01T10:38:44;100819.47;;;14.11;47.90
76864;BME280;65834;52.364;9.754;2023-05-01T10:41:17;100817.41;;;14.26;47.78
76864;BME280;65834;52.364;9.754;2023-05-01T10:44:19;100815.31;;;14.28;47.70
76864;BME280;65834;52.364;9.754;2023-05-01T10:46:48;100807.81;;;14.37;48.21
76864;BME280;65834;52.364;9.754;2023-05-01T10:49:18;100807.22;;;14.48;48.20
76864;BME280;65834;52.364;9.754;2023-05-01T10:51:58;100809.72;;;14.62;47.98
76864;BME280;65834;52.364;9.754;2023-05-01T10:54:29;100808.66;;;14.83;47.29
76864;BME280;65834;52.364;9.754;2023-05-01T10:57:02;100807.00;;;14.89;46.45
76864;BME280;65834;52.364;9.754;2023-05-01T11:02:32;100802.78;;;15.12;45.53
76864;BME280;65834;52.364;9.754;2023-05-01T11:05:01;100790.00;;;15.13;46.80
76864;BME280;65834;52.364;9.754;2023-05-01T11:07:31;100790.34;;;15.49;44.39
76864;BME280;65834;52.364;9.754;2023-05-01T11:10:01;100787.88;;;15.79;43.82
76864;BME280;65834;52.364;9.754;2023-05-01T11:12:51;100788.19;;;15.58;45.03
76864;BME280;65834;52.364;9.754;2023-05-01T11:15:25;100778.38;;;15.50;45.53
76864;BME280;65834;52.364;9.754;2023-05-01T11:17:55;100779.44;;;15.49;45.88
76864;BME280;65834;52.364;9.754;2023-05-01T11:20:46;100781.69;;;15.59;45.60
76864;BME280;65834;52.364;9.754;2023-05-01T11:23:19;100769.50;;;15.68;45.23
76864;BME280;65834;52.364;9.754;2023-05-01T11:26:01;100774.06;;;15.74;45.53
76864;BME280;65834;52.364;9.754;2023-05-01T11:28:37;100782.50;;;16.04;44.62
76864;BME280;65834;52.364;9.754;2023-05-01T11:31:06;100768.28;;;15.95;45.59
76864;BME280;65834;52.364;9.754;2023-05-01T11:33:37;100766.94;;;16.11;44.69
76864;BME280;65834;52.364;9.754;2023-05-01T11:36:06;100772.97;;;16.19;44.01
76864;BME280;65834;52.364;9.754;2023-05-01T11:38:36;100765.13;;;16.30;44.92
76864;BME280;65834;52.364;9.754;2023-05-01T11:41:06;100769.13;;;16.58;43.94
76864;BME280;65834;52.364;9.754;2023-05-01T11:43:50;100763.81;;;16.39;44.68
76864;BME280;65834;52.364;9.754;2023-05-01T11:46:23;100764.97;;;16.49;44.11
76864;BME280;65834;52.364;9.754;2023-05-01T11:48:53;100763.41;;;16.35;43.29
76864;BME280;65834;52.364;9.754;2023-05-01T11:51:23;100748.19;;;16.46;44.65
76864;BME280;65834;52.364;9.754;2023-05-01T11:53:57;100743.44;;;16.66;43.47
76864;BME280;65834;52.364;9.754;2023-05-01T11:56:28;100737.84;;;16.79;43.14
76864;BME280;65834;52.364;9.754;2023-05-01T11:59:08;100728.53;;;17.23;41.03
76864;BME280;65834;52.364;9.754;2023-05-01T12:01:40;100736.19;;;17.32;41.92
76864;BME280;65834;52.364;9.754;2023-05-01T12:04:11;100736.97;;;17.21;42.93
76864;BME280;65834;52.364;9.754;2023-05-01T12:06:42;100728.75;;;17.58;40.34
76864;BME280;65834;52.364;9.754;2023-05-01T12:09:16;100735.53;;;17.37;41.82
76864;BME280;65834;52.364;9.754;2023-05-01T12:11:48;100744.25;;;17.46;40.75
76864;BME280;65834;52.364;9.754;2023-05-01T12:14:21;100739.91;;;17.38;41.94
76864;BME280;65834;52.364;9.754;2023-05-01T12:16:51;100733.91;;;17.29;42.42
76864;BME280;65834;52.364;9.754;2023-05-01T12:19:21;100733.78;;;17.61;42.09
76864;BME280;65834;52.364;9.754;2023-05-01T12:22:04;100741.50;;;17.64;41.25
76864;BME280;65834;52.364;9.754;2023-05-01T12:24:34;100738.41;;;17.60;42.14
76864;BME280;65834;52.364;9.754;2023-05-01T12:27:04;100727.84;;;17.46;42.42
76864;BME280;65834;52.364;9.754;2023-05-01T12:29:41;100733.09;;;17.47;42.50
76864;BME280;65834;52.364;9.754;2023-05-01T12:32:12;100727.63;;;17.47;42.34
76864;BME280;65834;52.364;9.754;2023-05-01T12:34:42;100724.97;;;17.41;42.29
76864;BME280;65834;52.364;9.754;2023-05-01T12:37:12;100717.13;;;17.26;42.78
76864;BME280;65834;52.364;9.754;2023-05-01T12:39:42;100718.81;;;17.27;43.06
76864;BME280;65834;52.364;9.754;2023-05-01T12:42:13;100719.88;;;17.62;41.21
76864;BME280;65834;52.364;9.754;2023-05-01T12:44:46;100717.84;;;17.69;40.82
76864;BME280;65834;52.364;9.754;2023-05-01T12:47:15;100713.97;;;17.77;41.17
76864;BME280;65834;52.364;9.754;2023-05-01T12:49:45;100715.91;;;17.58;41.53
76864;BME280;65834;52.364;9.754;2023-05-01T12:52:15;100717.78;;;17.76;41.44
76864;BME280;65834;52.364;9.754;2023-05-01T12:54:44;100713.81;;;17.72;42.10
76864;BME280;65834;52.364;9.754;2023-05-01T12:57:15;100704.28;;;17.93;40.66
76864;BME280;65834;52.364;9.754;2023-05-01T12:59:57;100687.38;;;17.96;40.57
76864;BME280;65834;52.364;9.754;2023-05-01T13:02:29;100704.84;;;17.83;41.75
76864;BME280;65834;52.364;9.754;2023-05-01T13:05:04;100699.84;;;17.80;41.69
76864;BME280;65834;52.364;9.754;2023-05-01T13:07:35;100700.41;;;18.23;38.36
76864;BME280;65834;52.364;9.754;2023-05-01T13:10:06;100695.63;;;18.19;39.44
76864;BME280;65834;52.364;9.754;2023-05-01T13:12:42;100701.13;;;18.19;38.87
76864;BME280;65834;52.364;9.754;2023-05-01T13:15:21;100701.47;;;18.11;39.44
76864;BME280;65834;52.364;9.754;2023-05-01T13:17:51;100683.63;;;18.08;38.15
76864;BME280;65834;52.364;9.754;2023-05-01T13:20:25;100687.19;;;18.20;38.34
76864;BME280;65834;52.364;9.754;2023-05-01T13:22:55;100683.75;;;18.25;39.87
76864;BME280;65834;52.364;9.754;2023-05-01T13:25:24;100688.16;;;18.37;38.69